Quick Links (Output Below):   Max & Min Temps   /   Climate Reports   /   Zone Forecasts
River Forecasts   /   Forestry Forecasts   /   Aviation Forecasts   /   Radars   /   Features

Terminal Aerodrome Forecast (Fort Smith)

Pick a Site:
Arkadelphia | El Dorado | Fayetteville | Fort Smith | Harrison | Highfill | Hot Springs | Jonesboro
Little Rock | Monticello | Mountain Home | Pine Bluff | Texarkana
 Forecast 

KFSM 211621Z 2116/2212 09004KT P6SM OVC045
     FM220000 12007KT P6SM OVC025
     FM220600 08004KT P6SM OVC015=


 Latest METARs (Observations) 
How to Decode METARs
15Z KFSM 211453Z 07006KT 8SM OVC043 07/04 A3013 RMK AO2 SLP203
         T00670039 58005
         
14Z KFSM 211353Z 08004KT 8SM OVC040 07/04 A3014 RMK AO2 SLP206
         T00670044
         
13Z KFSM 211253Z 07005KT 7SM OVC038 07/04 A3015 RMK AO2 SLP210
         T00670044
         
12Z KFSM 211153Z 07005KT 9SM OVC033 07/04 A3014 RMK AO2 SLP209
         T00670044 10072 20067 55012
         
11Z KFSM 211053Z AUTO 09003KT 9SM OVC032 07/04 A3014 RMK AO2 SLP208
         T00720044
         
10Z KFSM 210953Z AUTO 09004KT 8SM OVC031 07/04 A3016 RMK AO2 SLP213
         T00670044
         
09Z KFSM 210853Z AUTO 06003KT 7SM OVC029 07/04 A3018 RMK AO2 SLP221
         T00670044 56008
         
08Z KFSM 210753Z AUTO 05003KT 7SM OVC030 07/04 A3019 RMK AO2 SLP223
         T00720044
         
07Z KFSM 210653Z AUTO 06004KT 7SM OVC029 07/04 A3018 RMK AO2 SLP222
         T00720044
         
06Z KFSM 210553Z AUTO 06003KT 7SM OVC030 07/04 A3020 RMK AO2 SLP229
         T00720044 10078 20067 400830050 58004
         
***** Today's Observations (Above) *****


Back to Main Page
http://www.srh.noaa.gov/lzk/qfcst.php

USA.gov is the U.S. government's official web portal to all federal, state and local government web resources and services.